Pagina principale
METAR-TAF:

METAR-TAF

Aeroporti :

Aeroporto di Cuneo-Levaldigi

Cuneo, Italia

latitudine: 44-32-47N, longitudine: 007-37-20E, altezza: 386 m

Osservazione

Il bollettino è stato emesso 39 minuti fa, alle 11:20 UTC
Vento 5 kt da nord/nord-ovest, variando fra ovest/nord-ovest e nord/nord-est
Temperature 24°C
Umidità 47%
Pressione 1027 hPa
Visibilità 10 km o più

METAR: LIMZ 191120Z AUTO 34005KT 290V030 9999 NCD 24/12 Q1027

Ora: 13:59 (11:59 UTC)

Previsione

Il bollettino è stato emesso 59 minuti fa, alle 11:00 UTC
Previsione valida dal 19 alle 12 UTC al 20 alle 12 UTC
Vento 6 kt da direzioni variabili
Visibilità 10 km o più
Poco nuvoloso ad un'altezza di 4000 ft

TAF: LIMZ 191100Z 1912/2012 VRB06KT 9999 FEW040

Osservazioni e previsioni meteorologiche di più di 4000 aeroporti (messaggi METAR e TAF).

Le stazioni disponibili sono rappresentate dai dischi gialli e rossi sulla carta.

Puntare il mouse per vedere il nome della stazione.

Clicca sopra per visualizzare le osservazioni e previsioni meteorologiche.

Per cambiare la mappa : fare clic sui pulsanti verdi con una croce nera per ingrandire, il pulsante verde con un trattino per diminuire, o sulla freccia verde per le mappe adiacenti.


METAR-TAF: